createdAt,value
2023-02-15T00:02:42.326Z,15.2
2023-02-15T00:07:42.363Z,16.2
2023-02-15T00:12:42.437Z,21.3
2023-02-15T00:17:42.337Z,20.9
2023-02-15T00:23:06.277Z,21.7
2023-02-15T00:27:42.424Z,25.8
2023-02-15T00:32:42.301Z,25.1
2023-02-15T00:37:42.545Z,27.7
2023-02-15T00:42:42.451Z,23.3
2023-02-15T00:47:42.258Z,24.4
2023-02-15T00:52:42.230Z,22.8
2023-02-15T00:57:42.430Z,27.7
2023-02-15T01:02:42.226Z,31.5
2023-02-15T01:07:42.234Z,31.8
2023-02-15T01:12:42.230Z,32.3
2023-02-15T01:17:42.193Z,41.6
2023-02-15T01:22:42.276Z,40.9
2023-02-15T01:27:42.207Z,37.4
2023-02-15T01:32:42.233Z,36.4
2023-02-15T01:37:42.318Z,32.0
2023-02-15T01:42:42.135Z,32.4
2023-02-15T01:47:42.148Z,38.1
2023-02-15T01:52:42.510Z,35.3
2023-02-15T01:57:42.074Z,44.2
2023-02-15T02:02:42.215Z,65.1
2023-02-15T02:07:42.686Z,93.8
2023-02-15T02:12:42.117Z,94.7
2023-02-15T02:17:43.276Z,87.8
2023-02-15T02:22:42.083Z,132.4
2023-02-15T02:27:42.988Z,67.8
2023-02-15T02:32:42.238Z,112.9
2023-02-15T02:37:42.351Z,99.3
2023-02-15T02:42:42.149Z,96.7
2023-02-15T02:47:42.114Z,96.7
2023-02-15T02:52:41.949Z,97.3
2023-02-15T02:57:42.033Z,84.1
2023-02-15T03:02:42.220Z,65.4
2023-02-15T03:07:42.010Z,57.9
2023-02-15T03:12:42.117Z,59.4
2023-02-15T03:17:43.262Z,46.0
2023-02-15T03:22:41.985Z,47.6
2023-02-15T03:27:41.962Z,92.1
2023-02-15T03:32:42.010Z,68.5
2023-02-15T03:37:42.078Z,53.6
2023-02-15T03:42:51.958Z,45.9
2023-02-15T03:47:52.008Z,51.9
2023-02-15T03:52:52.159Z,51.6
2023-02-15T03:57:51.926Z,55.8
2023-02-15T04:02:52.017Z,55.6
2023-02-15T04:07:52.193Z,51.0
2023-02-15T04:12:51.955Z,51.7
2023-02-15T04:17:52.115Z,51.7
2023-02-15T04:22:51.916Z,47.6
2023-02-15T04:27:52.075Z,53.1
2023-02-15T04:32:51.918Z,48.1
2023-02-15T04:37:51.841Z,63.9
2023-02-15T04:42:51.975Z,65.3
2023-02-15T04:47:52.095Z,55.9
2023-02-15T04:52:51.833Z,51.2
2023-02-15T04:57:51.820Z,51.1
2023-02-15T05:02:51.844Z,58.2
2023-02-15T05:07:51.805Z,54.7
2023-02-15T05:12:51.955Z,59.6
2023-02-15T05:17:51.842Z,80.3
2023-02-15T05:22:51.770Z,89.4
2023-02-15T05:27:51.937Z,73.4
2023-02-15T05:32:51.965Z,62.7
2023-02-15T05:37:51.774Z,65.6
2023-02-15T05:43:01.954Z,62.0
2023-02-15T05:48:02.256Z,49.1
2023-02-15T05:53:02.210Z,49.2
2023-02-15T05:58:01.855Z,91.0
2023-02-15T06:03:01.874Z,92.9
2023-02-15T06:08:01.823Z,75.0
2023-02-15T06:13:02.213Z,80.6
2023-02-15T06:18:02.518Z,92.1
2023-02-15T06:23:02.542Z,333.6
2023-02-15T06:28:02.512Z,112.1
2023-02-15T06:33:02.530Z,135.5
2023-02-15T06:38:02.662Z,100.2
2023-02-15T06:48:01.938Z,123.5
2023-02-15T06:53:02.802Z,93.1
2023-02-15T06:58:02.730Z,113.5
2023-02-15T07:03:02.536Z,110.7
2023-02-15T07:08:01.789Z,127.0
2023-02-15T07:13:02.501Z,85.7
2023-02-15T07:18:02.577Z,213.7
2023-02-15T07:23:02.509Z,125.1
2023-02-15T07:28:01.673Z,269.2
2023-02-15T07:33:04.805Z,95.1
2023-02-15T07:38:02.415Z,140.1
2023-02-15T07:43:02.428Z,159.8
2023-02-15T07:48:02.507Z,135.9
2023-02-15T07:53:02.501Z,143.3
2023-02-15T07:58:02.369Z,136.0
2023-02-15T08:03:02.601Z,105.2
2023-02-15T08:08:02.428Z,108.9
2023-02-15T08:13:02.444Z,142.2
2023-02-15T08:18:02.370Z,114.8
2023-02-15T08:23:02.212Z,103.0
2023-02-15T08:28:01.583Z,96.6
2023-02-15T08:33:01.851Z,97.3
2023-02-15T08:38:01.773Z,88.0
2023-02-15T08:43:02.031Z,88.7
2023-02-15T08:48:01.581Z,88.0
2023-02-15T08:53:01.562Z,93.1
2023-02-15T08:58:01.545Z,89.5
2023-02-15T09:03:01.655Z,87.4
2023-02-15T09:08:01.582Z,91.7
2023-02-15T09:13:01.655Z,76.5
2023-02-15T09:18:01.777Z,81.3
2023-02-15T09:23:01.693Z,78.1
2023-02-15T09:28:01.508Z,77.2
2023-02-15T09:33:01.767Z,78.6
2023-02-15T09:38:01.537Z,85.3
2023-02-15T09:43:01.474Z,88.9
2023-02-15T09:48:01.927Z,82.2
2023-02-15T09:53:01.727Z,71.4
2023-02-15T09:58:01.424Z,82.6
2023-02-15T10:03:01.572Z,78.7
2023-02-15T10:08:02.226Z,75.6
2023-02-15T10:13:01.424Z,114.0
2023-02-15T10:18:01.526Z,75.2
2023-02-15T10:23:01.589Z,65.2
2023-02-15T10:28:24.523Z,59.5
2023-02-15T10:38:01.396Z,61.5
2023-02-15T10:43:01.476Z,54.6
2023-02-15T10:48:01.426Z,55.6
2023-02-15T10:53:01.548Z,52.8
2023-02-15T10:58:01.501Z,52.8
2023-02-15T11:03:01.378Z,50.7
2023-02-15T11:08:01.568Z,42.4
2023-02-15T11:13:01.356Z,34.7
2023-02-15T11:18:01.392Z,46.9
2023-02-15T11:23:01.529Z,38.6
2023-02-15T11:28:01.374Z,34.2
2023-02-15T11:33:01.300Z,32.6
2023-02-15T11:38:01.462Z,34.3
2023-02-15T11:43:01.232Z,32.1
2023-02-15T11:48:01.271Z,30.7
2023-02-15T11:53:01.479Z,35.2
2023-02-15T11:58:01.351Z,32.7
2023-02-15T12:03:01.392Z,31.3
2023-02-15T12:08:01.379Z,38.5
2023-02-15T12:13:02.552Z,38.3
2023-02-15T12:18:01.240Z,30.8
2023-02-15T12:23:01.202Z,29.2
2023-02-15T12:28:01.351Z,32.2
2023-02-15T12:33:01.335Z,33.2
2023-02-15T12:38:01.140Z,31.5
2023-02-15T12:43:01.210Z,28.5
2023-02-15T12:48:01.734Z,31.2
2023-02-15T12:53:24.266Z,34.0
2023-02-15T12:58:24.103Z,33.8
2023-02-15T13:03:27.150Z,37.2
2023-02-15T13:08:24.259Z,29.5
2023-02-15T13:13:24.063Z,31.9
2023-02-15T13:18:24.168Z,25.8
2023-02-15T13:23:46.942Z,25.0
2023-02-15T13:29:15.283Z,25.0
2023-02-15T13:34:32.806Z,28.5
2023-02-15T13:39:32.716Z,27.7
2023-02-15T13:44:55.136Z,25.1
2023-02-15T13:49:55.164Z,26.9
2023-02-15T13:54:55.206Z,27.0
2023-02-15T13:59:55.573Z,27.5
2023-02-15T14:04:55.133Z,24.7
2023-02-15T14:09:55.114Z,26.9
2023-02-15T14:14:55.213Z,22.9
2023-02-15T14:19:55.123Z,27.8
2023-02-15T14:24:55.145Z,22.0
2023-02-15T14:29:55.313Z,20.6
2023-02-15T14:34:55.495Z,28.3
2023-02-15T14:40:17.795Z,26.1
2023-02-15T14:44:55.055Z,38.6
2023-02-15T14:49:56.026Z,27.1
2023-02-15T14:54:55.038Z,24.3
2023-02-15T14:59:55.229Z,21.7
2023-02-15T15:04:54.994Z,23.3
2023-02-15T15:09:55.105Z,26.4
2023-02-15T15:14:55.546Z,31.5
2023-02-15T15:19:54.978Z,34.7
2023-02-15T15:24:55.301Z,44.1
2023-02-15T15:29:55.074Z,45.5
2023-02-15T15:34:55.267Z,37.9
2023-02-15T15:39:55.243Z,36.2
2023-02-15T15:44:55.898Z,87.2
2023-02-15T15:54:56.052Z,345.0
2023-02-15T15:59:55.919Z,235.0
2023-02-15T16:04:54.991Z,135.9
2023-02-15T16:09:55.761Z,96.0
2023-02-15T16:14:54.994Z,100.1
2023-02-15T16:19:55.717Z,97.3
2023-02-15T16:24:55.982Z,139.1
2023-02-15T16:30:02.584Z,191.9
2023-02-15T16:34:55.509Z,189.5
2023-02-15T16:39:55.598Z,198.1
2023-02-15T16:44:55.505Z,198.8
2023-02-15T16:49:55.529Z,222.1
2023-02-15T16:54:55.575Z,278.2
2023-02-15T16:59:55.659Z,196.0
2023-02-15T17:04:55.554Z,155.2
2023-02-15T17:09:55.485Z,136.5
2023-02-15T17:14:55.844Z,132.9
2023-02-15T17:19:55.547Z,113.6
2023-02-15T17:24:55.562Z,171.6
2023-02-15T17:29:55.503Z,151.8
2023-02-15T17:34:55.448Z,380.8
2023-02-15T17:39:55.405Z,656.8
2023-02-15T17:44:55.482Z,413.6
2023-02-15T17:49:55.491Z,304.0
2023-02-15T17:54:55.424Z,150.0
2023-02-15T17:59:55.530Z,182.1
2023-02-15T18:04:55.502Z,155.7
2023-02-15T18:09:55.449Z,138.5
2023-02-15T18:14:55.423Z,129.6
2023-02-15T18:19:55.412Z,127.4
2023-02-15T18:24:55.760Z,152.1
2023-02-15T18:29:55.429Z,139.5
2023-02-15T18:34:55.398Z,138.3
2023-02-15T18:39:55.656Z,147.0
2023-02-15T18:44:55.424Z,141.5
2023-02-15T18:54:55.418Z,143.8
2023-02-15T18:59:55.812Z,139.0
2023-02-15T19:04:55.371Z,135.4
2023-02-15T19:09:56.518Z,138.6
2023-02-15T19:15:24.553Z,147.3
2023-02-15T19:24:55.389Z,212.1
2023-02-15T19:29:55.429Z,231.7
2023-02-15T19:34:55.227Z,179.5
2023-02-15T19:39:56.286Z,124.1
2023-02-15T19:44:55.265Z,108.7
2023-02-15T19:54:55.616Z,101.8
2023-02-15T19:59:56.090Z,136.5
2023-02-15T20:04:55.432Z,137.3
2023-02-15T20:09:55.305Z,141.8
2023-02-15T20:14:54.568Z,109.3
2023-02-15T20:19:54.482Z,92.8
2023-02-15T20:24:54.438Z,87.2
2023-02-15T20:29:55.218Z,81.4
2023-02-15T20:34:55.332Z,119.8
2023-02-15T20:39:55.426Z,115.2
2023-02-15T20:44:55.348Z,113.2
2023-02-15T20:49:55.502Z,115.5
2023-02-15T20:54:55.121Z,109.0
2023-02-15T20:59:56.224Z,118.9
2023-02-15T21:04:55.167Z,176.7
2023-02-15T21:09:55.412Z,269.2
2023-02-15T21:14:55.074Z,123.4
2023-02-15T21:19:55.191Z,111.6
2023-02-15T21:24:55.388Z,118.0
2023-02-15T21:29:55.366Z,118.6
2023-02-15T21:34:56.130Z,118.0
2023-02-15T21:39:55.018Z,117.4
2023-02-15T21:44:54.966Z,120.2
2023-02-15T21:49:55.014Z,124.2
2023-02-15T21:54:55.092Z,136.8
2023-02-15T21:59:55.240Z,143.4
2023-02-15T22:04:54.990Z,136.8
2023-02-15T22:09:55.093Z,154.5
2023-02-15T22:14:55.013Z,139.0
2023-02-15T22:19:55.032Z,197.2
2023-02-15T22:24:54.974Z,144.6
2023-02-15T22:29:55.516Z,130.4
2023-02-15T22:34:54.988Z,143.3
2023-02-15T22:39:54.883Z,130.4
2023-02-15T22:44:55.038Z,122.6
2023-02-15T22:49:54.906Z,122.2
2023-02-15T22:54:54.919Z,115.4
2023-02-15T22:59:54.884Z,114.3
2023-02-15T23:04:55.098Z,119.2
2023-02-15T23:09:55.175Z,120.1
2023-02-15T23:14:54.840Z,132.1
2023-02-15T23:19:55.040Z,116.5
2023-02-15T23:24:54.747Z,116.0
2023-02-15T23:29:54.933Z,119.2
2023-02-15T23:34:54.817Z,122.7
2023-02-15T23:39:54.726Z,127.9
2023-02-15T23:44:54.791Z,123.9
2023-02-15T23:49:54.858Z,114.3
2023-02-15T23:54:54.827Z,111.0
2023-02-15T23:59:54.839Z,122.9
